sensor_id;sensor_type;location;lat;lon;timestamp;pressure;altitude;pressure_sealevel;temperature;humidity
78488;BME280;67885;49.758;9.582;2023-04-15T00:00:32;98244.38;;;11.85;47.90
78488;BME280;67885;49.758;9.582;2023-04-15T00:02:59;98224.28;;;11.82;48.49
78488;BME280;67885;49.758;9.582;2023-04-15T00:05:28;98293.25;;;12.18;48.71
78488;BME280;67885;49.758;9.582;2023-04-15T00:07:56;98297.19;;;12.14;47.95
78488;BME280;67885;49.758;9.582;2023-04-15T00:10:24;98294.31;;;12.07;49.26
78488;BME280;67885;49.758;9.582;2023-04-15T00:12:50;98276.81;;;11.96;49.26
78488;BME280;67885;49.758;9.582;2023-04-15T00:15:17;98281.06;;;12.07;48.61
78488;BME280;67885;49.758;9.582;2023-04-15T00:17:44;98273.16;;;11.97;49.16
78488;BME280;67885;49.758;9.582;2023-04-15T00:20:11;98286.88;;;12.11;48.72
78488;BME280;67885;49.758;9.582;2023-04-15T00:22:38;98230.06;;;11.77;48.52
78488;BME280;67885;49.758;9.582;2023-04-15T00:25:07;98284.22;;;12.11;48.71
78488;BME280;67885;49.758;9.582;2023-04-15T00:27:34;98282.47;;;12.02;49.33
78488;BME280;67885;49.758;9.582;2023-04-15T00:30:01;98278.91;;;11.93;49.12
78488;BME280;67885;49.758;9.582;2023-04-15T00:32:28;98273.06;;;11.89;48.32
78488;BME280;67885;49.758;9.582;2023-04-15T00:34:55;98275.72;;;11.89;48.93
78488;BME280;67885;49.758;9.582;2023-04-15T00:37:22;98258.50;;;11.67;49.26
78488;BME280;67885;49.758;9.582;2023-04-15T00:39:48;98262.78;;;11.86;48.60
78488;BME280;67885;49.758;9.582;2023-04-15T00:42:17;98264.41;;;11.79;49.84
78488;BME280;67885;49.758;9.582;2023-04-15T00:44:46;98262.41;;;11.81;49.17
78488;BME280;67885;49.758;9.582;2023-04-15T00:47:14;98233.84;;;11.57;49.16
78488;BME280;67885;49.758;9.582;2023-04-15T00:49:41;98223.19;;;11.48;48.97
78488;BME280;67885;49.758;9.582;2023-04-15T00:52:08;98277.66;;;11.79;48.97
78488;BME280;67885;49.758;9.582;2023-04-15T00:54:34;98262.41;;;11.81;49.33
78488;BME280;67885;49.758;9.582;2023-04-15T00:57:04;98264.06;;;11.82;49.10
78488;BME280;67885;49.758;9.582;2023-04-15T00:59:32;98234.03;;;11.55;49.54
78488;BME280;67885;49.758;9.582;2023-04-15T01:01:59;98265.97;;;11.72;49.44
78488;BME280;67885;49.758;9.582;2023-04-15T01:04:26;98264.84;;;11.74;49.73
78488;BME280;67885;49.758;9.582;2023-04-15T01:06:53;98244.53;;;11.65;49.25
78488;BME280;67885;49.758;9.582;2023-04-15T01:09:20;98269.00;;;11.77;49.74
78488;BME280;67885;49.758;9.582;2023-04-15T01:11:46;98264.56;;;11.77;49.92
78488;BME280;67885;49.758;9.582;2023-04-15T01:14:14;98263.53;;;11.78;49.53
78488;BME280;67885;49.758;9.582;2023-04-15T01:16:42;98261.59;;;11.80;49.38
78488;BME280;67885;49.758;9.582;2023-04-15T01:19:09;98262.88;;;11.76;49.01
78488;BME280;67885;49.758;9.582;2023-04-15T01:21:36;98256.66;;;11.68;49.72
78488;BME280;67885;49.758;9.582;2023-04-15T01:24:08;98254.72;;;11.52;50.17
78488;BME280;67885;49.758;9.582;2023-04-15T01:26:37;98264.63;;;11.68;50.11
78488;BME280;67885;49.758;9.582;2023-04-15T01:29:03;98264.25;;;11.62;50.77
78488;BME280;67885;49.758;9.582;2023-04-15T01:31:31;98262.06;;;11.58;50.20
78488;BME280;67885;49.758;9.582;2023-04-15T01:33:58;98260.03;;;11.52;49.95
78488;BME280;67885;49.758;9.582;2023-04-15T01:36:25;98260.47;;;11.47;50.18
78488;BME280;67885;49.758;9.582;2023-04-15T01:38:52;98256.84;;;11.48;50.90
78488;BME280;67885;49.758;9.582;2023-04-15T01:41:21;98257.97;;;11.45;50.77
78488;BME280;67885;49.758;9.582;2023-04-15T01:43:51;98259.81;;;11.45;51.14
78488;BME280;67885;49.758;9.582;2023-04-15T01:46:18;98249.31;;;11.43;51.06
78488;BME280;67885;49.758;9.582;2023-04-15T01:48:45;98222.00;;;11.25;50.93
78488;BME280;67885;49.758;9.582;2023-04-15T01:51:12;98250.16;;;11.44;50.37
78488;BME280;67885;49.758;9.582;2023-04-15T01:53:38;98253.88;;;11.51;51.24
78488;BME280;67885;49.758;9.582;2023-04-15T01:56:06;98222.22;;;11.32;51.10
78488;BME280;67885;49.758;9.582;2023-04-15T01:58:32;98248.78;;;11.58;50.35
78488;BME280;67885;49.758;9.582;2023-04-15T02:01:00;98253.72;;;11.53;50.93
78488;BME280;67885;49.758;9.582;2023-04-15T02:03:28;98209.88;;;11.22;50.60
78488;BME280;67885;49.758;9.582;2023-04-15T02:05:55;98245.03;;;11.42;51.47
78488;BME280;67885;49.758;9.582;2023-04-15T02:08:22;98244.72;;;11.45;51.22
78488;BME280;67885;49.758;9.582;2023-04-15T02:10:48;98244.72;;;11.45;50.51
78488;BME280;67885;49.758;9.582;2023-04-15T02:13:15;98241.91;;;11.47;51.57
78488;BME280;67885;49.758;9.582;2023-04-15T02:15:46;98245.25;;;11.49;51.33
78488;BME280;67885;49.758;9.582;2023-04-15T02:18:14;98239.94;;;11.49;51.70
78488;BME280;67885;49.758;9.582;2023-04-15T02:20:41;98246.22;;;11.48;51.64
78488;BME280;67885;49.758;9.582;2023-04-15T02:23:08;98244.56;;;11.47;50.98
78488;BME280;67885;49.758;9.582;2023-04-15T02:25:35;98219.19;;;11.26;51.19
78488;BME280;67885;49.758;9.582;2023-04-15T02:28:03;98245.84;;;11.43;51.00
78488;BME280;67885;49.758;9.582;2023-04-15T02:30:30;98247.38;;;11.45;51.75
78488;BME280;67885;49.758;9.582;2023-04-15T02:32:57;98227.06;;;11.36;50.61
78488;BME280;67885;49.758;9.582;2023-04-15T02:35:25;98253.34;;;11.29;51.03
78488;BME280;67885;49.758;9.582;2023-04-15T02:37:52;98252.91;;;11.52;50.54
78488;BME280;67885;49.758;9.582;2023-04-15T02:40:19;98225.25;;;11.37;50.46
78488;BME280;67885;49.758;9.582;2023-04-15T02:42:46;98218.50;;;11.24;51.51
78488;BME280;67885;49.758;9.582;2023-04-15T02:45:12;98233.13;;;11.28;51.17
78488;BME280;67885;49.758;9.582;2023-04-15T02:47:39;98229.88;;;11.17;51.60
78488;BME280;67885;49.758;9.582;2023-04-15T02:50:09;98227.06;;;11.18;51.28
78488;BME280;67885;49.758;9.582;2023-04-15T02:52:39;98242.06;;;11.27;52.18
78488;BME280;67885;49.758;9.582;2023-04-15T02:55:07;98223.22;;;11.12;52.00
78488;BME280;67885;49.758;9.582;2023-04-15T02:57:34;98241.91;;;11.29;51.95
78488;BME280;67885;49.758;9.582;2023-04-15T03:00:02;98241.44;;;11.34;50.85
78488;BME280;67885;49.758;9.582;2023-04-15T03:02:32;98242.44;;;11.33;51.38
78488;BME280;67885;49.758;9.582;2023-04-15T03:04:59;98237.97;;;11.33;51.46
78488;BME280;67885;49.758;9.582;2023-04-15T03:07:25;98240.63;;;11.33;51.07
78488;BME280;67885;49.758;9.582;2023-04-15T03:09:53;98238.13;;;11.32;51.14
78488;BME280;67885;49.758;9.582;2023-04-15T03:12:20;98237.97;;;11.33;51.04
78488;BME280;67885;49.758;9.582;2023-04-15T03:14:47;98219.78;;;11.20;50.91
78488;BME280;67885;49.758;9.582;2023-04-15T03:17:13;98228.97;;;11.26;51.59
78488;BME280;67885;49.758;9.582;2023-04-15T03:19:40;98237.59;;;11.28;50.70
78488;BME280;67885;49.758;9.582;2023-04-15T03:22:07;98231.63;;;11.26;51.74
78488;BME280;67885;49.758;9.582;2023-04-15T03:24:33;98209.28;;;11.10;51.32
78488;BME280;67885;49.758;9.582;2023-04-15T03:27:01;98237.81;;;11.17;51.36
78488;BME280;67885;49.758;9.582;2023-04-15T03:29:30;98207.91;;;10.88;51.59
78488;BME280;67885;49.758;9.582;2023-04-15T03:31:57;98165.69;;;10.59;52.28
78488;BME280;67885;49.758;9.582;2023-04-15T03:34:23;98239.69;;;11.06;51.89
78488;BME280;67885;49.758;9.582;2023-04-15T03:36:50;98231.75;;;11.06;51.88
78488;BME280;67885;49.758;9.582;2023-04-15T03:39:17;98231.59;;;11.08;51.89
78488;BME280;67885;49.758;9.582;2023-04-15T03:41:43;98206.47;;;10.94;51.54
78488;BME280;67885;49.758;9.582;2023-04-15T03:44:11;98244.13;;;10.22;51.18
78488;BME280;67885;49.758;9.582;2023-04-15T03:46:38;98230.31;;;11.12;51.09
78488;BME280;67885;49.758;9.582;2023-04-15T03:49:05;98210.09;;;10.93;51.61
78488;BME280;67885;49.758;9.582;2023-04-15T03:51:32;98213.72;;;10.92;51.82
78488;BME280;67885;49.758;9.582;2023-04-15T03:53:59;98213.72;;;10.92;51.32
78488;BME280;67885;49.758;9.582;2023-04-15T03:56:26;98230.22;;;11.04;51.47
78488;BME280;67885;49.758;9.582;2023-04-15T03:58:53;98232.72;;;11.05;51.40
78488;BME280;67885;49.758;9.582;2023-04-15T04:01:21;98238.41;;;11.10;50.69
78488;BME280;67885;49.758;9.582;2023-04-15T04:03:47;98232.81;;;11.13;50.11
78488;BME280;67885;49.758;9.582;2023-04-15T04:06:14;98177.00;;;10.79;50.74
78488;BME280;67885;49.758;9.582;2023-04-15T04:08:41;98231.53;;;11.18;50.74
78488;BME280;67885;49.758;9.582;2023-04-15T04:11:07;98201.72;;;10.98;50.91
78488;BME280;67885;49.758;9.582;2023-04-15T04:13:34;98242.00;;;11.19;50.28
78488;BME280;67885;49.758;9.582;2023-04-15T04:16:01;98242.13;;;11.18;51.38
78488;BME280;67885;49.758;9.582;2023-04-15T04:18:30;98218.72;;;10.95;50.11
78488;BME280;67885;49.758;9.582;2023-04-15T04:20:57;98241.31;;;11.17;50.83
78488;BME280;67885;49.758;9.582;2023-04-15T04:23:23;98219.63;;;11.04;50.86
78488;BME280;67885;49.758;9.582;2023-04-15T04:25:50;98237.44;;;11.11;50.99
78488;BME280;67885;49.758;9.582;2023-04-15T04:28:16;98239.84;;;11.05;50.94
78488;BME280;67885;49.758;9.582;2023-04-15T04:30:43;98243.47;;;11.04;51.43
78488;BME280;67885;49.758;9.582;2023-04-15T04:33:10;98222.91;;;10.98;51.14
78488;BME280;67885;49.758;9.582;2023-04-15T04:35:38;98235.84;;;11.01;51.08
78488;BME280;67885;49.758;9.582;2023-04-15T04:38:05;98221.97;;;10.89;51.80
78488;BME280;67885;49.758;9.582;2023-04-15T04:40:31;98237.28;;;10.95;51.20
78488;BME280;67885;49.758;9.582;2023-04-15T04:42:58;98123.69;;;10.18;51.34
78488;BME280;67885;49.758;9.582;2023-04-15T04:45:25;98235.06;;;10.90;51.64
78488;BME280;67885;49.758;9.582;2023-04-15T04:47:52;98234.22;;;10.90;51.47
78488;BME280;67885;49.758;9.582;2023-04-15T04:50:18;98241.63;;;10.86;51.28
78488;BME280;67885;49.758;9.582;2023-04-15T04:52:46;98240.25;;;10.82;52.01
78488;BME280;67885;49.758;9.582;2023-04-15T04:55:13;98237.78;;;10.80;51.70
78488;BME280;67885;49.758;9.582;2023-04-15T04:57:40;98223.22;;;10.67;53.09
78488;BME280;67885;49.758;9.582;2023-04-15T05:00:07;98225.25;;;10.73;51.88
78488;BME280;67885;49.758;9.582;2023-04-15T05:02:34;98178.59;;;10.44;51.93
78488;BME280;67885;49.758;9.582;2023-04-15T05:05:01;98246.41;;;10.83;51.57
78488;BME280;67885;49.758;9.582;2023-04-15T05:07:28;98245.72;;;10.80;52.07
78488;BME280;67885;49.758;9.582;2023-04-15T05:09:56;98245.03;;;10.78;51.99
78488;BME280;67885;49.758;9.582;2023-04-15T05:12:23;98231.72;;;10.70;52.18
78488;BME280;67885;49.758;9.582;2023-04-15T05:14:49;98252.88;;;10.98;51.74
78488;BME280;67885;49.758;9.582;2023-04-15T05:17:16;98255.06;;;11.03;51.18
78488;BME280;67885;49.758;9.582;2023-04-15T05:19:43;98254.63;;;11.07;51.58
78488;BME280;67885;49.758;9.582;2023-04-15T05:22:09;98259.06;;;11.07;51.80
78488;BME280;67885;49.758;9.582;2023-04-15T05:24:36;98263.25;;;11.09;52.23
78488;BME280;67885;49.758;9.582;2023-04-15T05:27:04;98265.75;;;11.11;51.97
78488;BME280;67885;49.758;9.582;2023-04-15T05:29:30;98259.19;;;11.15;52.37
78488;BME280;67885;49.758;9.582;2023-04-15T05:31:57;98242.91;;;11.10;51.86
78488;BME280;67885;49.758;9.582;2023-04-15T05:34:24;98248.03;;;11.11;51.62
78488;BME280;67885;49.758;9.582;2023-04-15T05:36:50;98256.91;;;11.20;51.82
78488;BME280;67885;49.758;9.582;2023-04-15T05:39:17;98256.22;;;11.18;52.54
78488;BME280;67885;49.758;9.582;2023-04-15T05:41:44;98254.56;;;11.17;52.23
78488;BME280;67885;49.758;9.582;2023-04-15T05:44:12;98262.03;;;11.04;52.45
78488;BME280;67885;49.758;9.582;2023-04-15T05:46:39;98260.06;;;11.06;52.65
78488;BME280;67885;49.758;9.582;2023-04-15T05:49:06;98260.81;;;10.98;53.35
78488;BME280;67885;49.758;9.582;2023-04-15T05:51:32;98267.38;;;10.94;53.42
78488;BME280;67885;49.758;9.582;2023-04-15T05:53:59;98266.03;;;10.90;53.45
78488;BME280;67885;49.758;9.582;2023-04-15T05:56:25;98246.59;;;10.71;54.58
78488;BME280;67885;49.758;9.582;2023-04-15T05:58:52;98271.81;;;10.75;53.82
78488;BME280;67885;49.758;9.582;2023-04-15T06:01:20;98271.13;;;10.73;53.99
78488;BME280;67885;49.758;9.582;2023-04-15T06:03:46;98265.28;;;10.70;55.37
78488;BME280;67885;49.758;9.582;2023-04-15T06:06:13;98271.63;;;10.87;54.53
78488;BME280;67885;49.758;9.582;2023-04-15T06:08:40;98276.88;;;10.96;53.63
78488;BME280;67885;49.758;9.582;2023-04-15T06:11:07;98286.63;;;10.96;54.08
78488;BME280;67885;49.758;9.582;2023-04-15T06:13:33;98253.84;;;10.97;54.08
78488;BME280;67885;49.758;9.582;2023-04-15T06:16:00;98277.09;;;11.03;54.06
78488;BME280;67885;49.758;9.582;2023-04-15T06:18:28;98272.28;;;11.17;54.16
78488;BME280;67885;49.758;9.582;2023-04-15T06:20:55;98267.72;;;11.27;53.37
78488;BME280;67885;49.758;9.582;2023-04-15T06:23:22;98273.25;;;11.34;53.95
78488;BME280;67885;49.758;9.582;2023-04-15T06:25:49;98255.03;;;11.30;53.44
78488;BME280;67885;49.758;9.582;2023-04-15T06:28:15;98249.56;;;11.32;53.35
78488;BME280;67885;49.758;9.582;2023-04-15T06:30:42;98260.94;;;11.42;52.91
78488;BME280;67885;49.758;9.582;2023-04-15T06:33:09;98223.13;;;11.22;53.21
78488;BME280;67885;49.758;9.582;2023-04-15T06:35:37;98274.09;;;11.52;52.95
78488;BME280;67885;49.758;9.582;2023-04-15T06:38:04;98273.47;;;11.58;52.52
78488;BME280;67885;49.758;9.582;2023-04-15T06:40:31;98279.88;;;11.66;51.97
78488;BME280;67885;49.758;9.582;2023-04-15T06:42:58;98283.72;;;11.71;51.68
78488;BME280;67885;49.758;9.582;2023-04-15T06:45:24;98239.78;;;11.51;52.90
78488;BME280;67885;49.758;9.582;2023-04-15T06:47:51;98268.56;;;11.81;53.04
78488;BME280;67885;49.758;9.582;2023-04-15T06:50:18;98277.88;;;11.86;52.60
78488;BME280;67885;49.758;9.582;2023-04-15T06:52:46;98281.19;;;11.88;52.73
78488;BME280;67885;49.758;9.582;2023-04-15T06:55:12;98280.75;;;11.92;52.91
78488;BME280;67885;49.758;9.582;2023-04-15T06:57:39;98276.66;;;11.98;52.62
78488;BME280;67885;49.758;9.582;2023-04-15T07:00:07;98283.00;;;12.05;52.51
78488;BME280;67885;49.758;9.582;2023-04-15T07:02:35;98270.88;;;12.03;51.22
78488;BME280;67885;49.758;9.582;2023-04-15T07:05:02;98280.09;;;12.17;51.57
78488;BME280;67885;49.758;9.582;2023-04-15T07:07:29;98277.97;;;12.20;51.13
78488;BME280;67885;49.758;9.582;2023-04-15T07:09:57;98283.50;;;12.27;51.42
78488;BME280;67885;49.758;9.582;2023-04-15T07:12:25;98320.19;;;12.31;51.22
78488;BME280;67885;49.758;9.582;2023-04-15T07:14:51;98283.31;;;12.28;51.35
78488;BME280;67885;49.758;9.582;2023-04-15T07:17:18;98281.81;;;12.26;51.75
78488;BME280;67885;49.758;9.582;2023-04-15T07:19:45;98282.63;;;12.18;52.19
78488;BME280;67885;49.758;9.582;2023-04-15T07:22:11;98284.25;;;12.19;51.98
78488;BME280;67885;49.758;9.582;2023-04-15T07:24:38;98243.44;;;11.94;52.42
78488;BME280;67885;49.758;9.582;2023-04-15T07:27:06;98238.44;;;11.91;52.18
78488;BME280;67885;49.758;9.582;2023-04-15T07:29:33;98271.84;;;12.20;53.38
78488;BME280;67885;49.758;9.582;2023-04-15T07:31:59;98289.38;;;12.39;53.18
78488;BME280;67885;49.758;9.582;2023-04-15T07:34:26;98291.09;;;12.48;51.99
78488;BME280;67885;49.758;9.582;2023-04-15T07:36:53;98255.16;;;12.36;53.05
78488;BME280;67885;49.758;9.582;2023-04-15T07:39:19;98273.38;;;12.57;52.04
78488;BME280;67885;49.758;9.582;2023-04-15T07:41:47;98293.38;;;12.77;51.47
78488;BME280;67885;49.758;9.582;2023-04-15T07:44:15;98292.09;;;12.90;51.10
78488;BME280;67885;49.758;9.582;2023-04-15T07:46:42;98300.94;;;12.98;52.74
78488;BME280;67885;49.758;9.582;2023-04-15T07:49:08;98292.84;;;13.08;51.25
78488;BME280;67885;49.758;9.582;2023-04-15T07:51:35;98294.53;;;13.18;51.29
78488;BME280;67885;49.758;9.582;2023-04-15T07:54:02;98289.38;;;13.24;51.32
78488;BME280;67885;49.758;9.582;2023-04-15T07:56:28;98268.41;;;13.13;51.37
78488;BME280;67885;49.758;9.582;2023-04-15T07:58:55;98294.09;;;13.39;50.58
78488;BME280;67885;49.758;9.582;2023-04-15T08:01:23;98289.13;;;13.52;51.20
78488;BME280;67885;49.758;9.582;2023-04-15T08:03:50;98290.97;;;13.60;50.10
78488;BME280;67885;49.758;9.582;2023-04-15T08:06:16;98286.81;;;13.65;50.31
78488;BME280;67885;49.758;9.582;2023-04-15T08:08:43;98283.69;;;13.70;50.60
78488;BME280;67885;49.758;9.582;2023-04-15T08:11:10;98296.97;;;13.87;49.23
78488;BME280;67885;49.758;9.582;2023-04-15T08:13:37;98290.97;;;13.93;50.00
78488;BME280;67885;49.758;9.582;2023-04-15T08:16:17;98287.81;;;13.97;48.75
78488;BME280;67885;49.758;9.582;2023-04-15T08:18:45;98285.50;;;14.03;48.61
78488;BME280;67885;49.758;9.582;2023-04-15T08:21:12;98295.47;;;14.09;50.36
78488;BME280;67885;49.758;9.582;2023-04-15T08:23:39;98271.50;;;14.09;50.20
78488;BME280;67885;49.758;9.582;2023-04-15T08:26:05;98283.78;;;14.26;49.09
78488;BME280;67885;49.758;9.582;2023-04-15T08:28:33;98288.09;;;14.44;50.14
78488;BME280;67885;49.758;9.582;2023-04-15T08:31:00;98282.91;;;14.50;50.30
78488;BME280;67885;49.758;9.582;2023-04-15T08:33:26;98257.59;;;14.46;49.44
78488;BME280;67885;49.758;9.582;2023-04-15T08:35:55;98295.50;;;14.81;49.12
78488;BME280;67885;49.758;9.582;2023-04-15T08:38:22;98295.44;;;14.98;48.96
78488;BME280;67885;49.758;9.582;2023-04-15T08:40:49;98282.19;;;15.13;48.53
78488;BME280;67885;49.758;9.582;2023-04-15T08:43:20;98272.53;;;15.12;47.34
78488;BME280;67885;49.758;9.582;2023-04-15T08:45:49;98277.63;;;15.22;46.75
78488;BME280;67885;49.758;9.582;2023-04-15T08:48:17;98270.28;;;15.24;45.21
78488;BME280;67885;49.758;9.582;2023-04-15T08:50:44;98272.72;;;15.33;43.78
78488;BME280;67885;49.758;9.582;2023-04-15T08:53:13;98284.00;;;15.44;45.51
78488;BME280;67885;49.758;9.582;2023-04-15T08:55:42;98268.81;;;15.44;44.70
78488;BME280;67885;49.758;9.582;2023-04-15T08:58:11;98271.00;;;15.41;42.99
78488;BME280;67885;49.758;9.582;2023-04-15T09:00:38;98285.31;;;15.48;41.67
78488;BME280;67885;49.758;9.582;2023-04-15T09:03:06;98286.69;;;15.44;43.33
78488;BME280;67885;49.758;9.582;2023-04-15T09:05:34;98291.53;;;15.40;43.18
78488;BME280;67885;49.758;9.582;2023-04-15T09:08:01;98263.78;;;15.26;43.04
78488;BME280;67885;49.758;9.582;2023-04-15T09:10:30;98299.91;;;15.37;42.77
78488;BME280;67885;49.758;9.582;2023-04-15T09:12:58;98280.59;;;15.27;43.17
78488;BME280;67885;49.758;9.582;2023-04-15T09:15:25;98303.38;;;15.38;43.24
78488;BME280;67885;49.758;9.582;2023-04-15T09:17:53;98291.88;;;15.37;42.51
78488;BME280;67885;49.758;9.582;2023-04-15T09:20:20;98286.06;;;15.33;43.64
78488;BME280;67885;49.758;9.582;2023-04-15T09:22:48;98250.13;;;15.21;43.60
78488;BME280;67885;49.758;9.582;2023-04-15T09:25:26;98304.41;;;15.60;44.06
78488;BME280;67885;49.758;9.582;2023-04-15T09:27:56;98304.56;;;15.58;42.32
78488;BME280;67885;49.758;9.582;2023-04-15T09:30:24;98304.94;;;15.78;41.84
78488;BME280;67885;49.758;9.582;2023-04-15T09:32:52;98294.81;;;15.74;42.52
78488;BME280;67885;49.758;9.582;2023-04-15T09:35:20;98312.47;;;15.83;41.55
78488;BME280;67885;49.758;9.582;2023-04-15T09:37:47;98213.91;;;15.27;38.09
78488;BME280;67885;49.758;9.582;2023-04-15T09:40:14;98311.44;;;15.84;39.05
78488;BME280;67885;49.758;9.582;2023-04-15T09:42:55;98314.41;;;15.89;38.95
78488;BME280;67885;49.758;9.582;2023-04-15T09:45:23;98318.38;;;15.93;39.50
78488;BME280;67885;49.758;9.582;2023-04-15T09:47:49;98316.19;;;15.97;39.38
78488;BME280;67885;49.758;9.582;2023-04-15T09:50:17;98315.25;;;16.05;39.60
78488;BME280;67885;49.758;9.582;2023-04-15T09:52:44;98321.28;;;16.07;38.57
78488;BME280;67885;49.758;9.582;2023-04-15T09:55:13;98315.75;;;16.08;38.31
78488;BME280;67885;49.758;9.582;2023-04-15T09:57:41;98322.09;;;16.07;37.97
78488;BME280;67885;49.758;9.582;2023-04-15T10:00:10;98311.47;;;15.99;38.13
78488;BME280;67885;49.758;9.582;2023-04-15T10:02:39;98302.00;;;15.96;39.28
78488;BME280;67885;49.758;9.582;2023-04-15T10:05:09;98332.31;;;16.04;38.21
78488;BME280;67885;49.758;9.582;2023-04-15T10:07:37;98301.44;;;15.78;39.50
78488;BME280;67885;49.758;9.582;2023-04-15T10:10:06;98318.97;;;16.04;39.01
78488;BME280;67885;49.758;9.582;2023-04-15T10:12:36;98322.53;;;15.96;39.05
78488;BME280;67885;49.758;9.582;2023-04-15T10:15:05;98264.41;;;15.75;39.53
78488;BME280;67885;49.758;9.582;2023-04-15T10:17:34;98333.38;;;16.17;39.93
78488;BME280;67885;49.758;9.582;2023-04-15T10:20:03;98322.97;;;16.23;39.00
78488;BME280;67885;49.758;9.582;2023-04-15T10:22:31;98322.41;;;16.27;37.77
78488;BME280;67885;49.758;9.582;2023-04-15T10:24:58;98330.06;;;16.30;39.25
78488;BME280;67885;49.758;9.582;2023-04-15T10:27:26;98339.22;;;16.36;39.67
78488;BME280;67885;49.758;9.582;2023-04-15T10:29:53;98335.69;;;16.35;37.07
78488;BME280;67885;49.758;9.582;2023-04-15T10:32:21;98334.50;;;16.38;39.55
78488;BME280;67885;49.758;9.582;2023-04-15T10:34:52;98336.00;;;16.41;37.33
78488;BME280;67885;49.758;9.582;2023-04-15T10:37:20;98300.28;;;16.04;36.57
78488;BME280;67885;49.758;9.582;2023-04-15T10:39:47;98339.00;;;16.23;37.28
78488;BME280;67885;49.758;9.582;2023-04-15T10:42:16;98339.34;;;16.19;36.60
78488;BME280;67885;49.758;9.582;2023-04-15T10:44:44;98337.41;;;16.13;36.46
78488;BME280;67885;49.758;9.582;2023-04-15T10:47:16;98342.72;;;15.98;36.35
78488;BME280;67885;49.758;9.582;2023-04-15T10:49:46;98347.63;;;15.87;37.35
78488;BME280;67885;49.758;9.582;2023-04-15T10:52:17;98352.84;;;15.80;36.86
78488;BME280;67885;49.758;9.582;2023-04-15T10:54:47;98350.88;;;15.74;38.53
78488;BME280;67885;49.758;9.582;2023-04-15T10:57:16;98349.38;;;15.71;38.03
78488;BME280;67885;49.758;9.582;2023-04-15T11:00:08;98353.41;;;15.67;38.15
78488;BME280;67885;49.758;9.582;2023-04-15T11:02:41;98357.28;;;15.64;39.59
78488;BME280;67885;49.758;9.582;2023-04-15T11:05:09;98355.41;;;15.65;38.96
78488;BME280;67885;49.758;9.582;2023-04-15T11:07:39;98346.81;;;15.55;40.81
78488;BME280;67885;49.758;9.582;2023-04-15T11:15:59;98364.56;;;15.39;40.64
78488;BME280;67885;49.758;9.582;2023-04-15T11:18:29;98363.16;;;15.51;38.86
78488;BME280;67885;49.758;9.582;2023-04-15T11:20:58;98372.22;;;15.42;39.11
78488;BME280;67885;49.758;9.582;2023-04-15T11:23:35;98376.25;;;15.38;43.73
78488;BME280;67885;49.758;9.582;2023-04-15T11:26:04;98384.06;;;15.48;39.52
78488;BME280;67885;49.758;9.582;2023-04-15T11:28:34;98365.94;;;15.35;39.05
78488;BME280;67885;49.758;9.582;2023-04-15T11:31:06;98294.78;;;14.88;39.74
78488;BME280;67885;49.758;9.582;2023-04-15T11:33:35;98383.03;;;15.49;39.76
78488;BME280;67885;49.758;9.582;2023-04-15T11:36:02;98390.69;;;15.52;40.54
78488;BME280;67885;49.758;9.582;2023-04-15T11:38:31;98379.22;;;15.43;42.35
78488;BME280;67885;49.758;9.582;2023-04-15T11:40:59;98394.50;;;15.58;42.03
78488;BME280;67885;49.758;9.582;2023-04-15T11:43:26;98397.53;;;15.55;43.39
78488;BME280;67885;49.758;9.582;2023-04-15T11:45:55;98394.38;;;15.51;43.46
78488;BME280;67885;49.758;9.582;2023-04-15T11:48:24;98406.03;;;15.50;45.40
78488;BME280;67885;49.758;9.582;2023-04-15T11:50:55;98411.28;;;15.66;46.22
78488;BME280;67885;49.758;9.582;2023-04-15T11:53:23;98403.88;;;15.85;44.76
78488;BME280;67885;49.758;9.582;2023-04-15T11:55:52;98405.97;;;15.98;44.70
78488;BME280;67885;49.758;9.582;2023-04-15T11:58:21;98404.38;;;16.12;45.40
78488;BME280;67885;49.758;9.582;2023-04-15T12:00:49;98422.28;;;16.26;43.63
78488;BME280;67885;49.758;9.582;2023-04-15T12:03:20;98408.97;;;15.95;44.22
78488;BME280;67885;49.758;9.582;2023-04-15T12:06:06;98424.81;;;15.96;44.60
78488;BME280;67885;49.758;9.582;2023-04-15T12:08:51;98430.09;;;15.73;45.91
78488;BME280;67885;49.758;9.582;2023-04-15T12:11:27;98414.59;;;15.45;46.14
78488;BME280;67885;49.758;9.582;2023-04-15T12:13:56;98445.06;;;15.51;45.79
78488;BME280;67885;49.758;9.582;2023-04-15T12:16:24;98444.44;;;15.41;46.29
78488;BME280;67885;49.758;9.582;2023-04-15T12:18:52;98443.84;;;15.22;46.11
78488;BME280;67885;49.758;9.582;2023-04-15T12:21:21;98443.19;;;15.20;46.91
78488;BME280;67885;49.758;9.582;2023-04-15T12:23:49;98446.69;;;15.12;47.67
78488;BME280;67885;49.758;9.582;2023-04-15T12:26:18;98451.19;;;15.12;47.64
78488;BME280;67885;49.758;9.582;2023-04-15T12:28:54;98448.00;;;15.16;48.25
78488;BME280;67885;49.758;9.582;2023-04-15T12:31:21;98452.03;;;15.21;48.15
78488;BME280;67885;49.758;9.582;2023-04-15T12:33:48;98458.00;;;15.23;47.83
78488;BME280;67885;49.758;9.582;2023-04-15T12:36:15;98462.16;;;15.25;48.56
78488;BME280;67885;49.758;9.582;2023-04-15T12:38:42;98441.72;;;15.09;48.23
78488;BME280;67885;49.758;9.582;2023-04-15T12:41:09;98469.84;;;15.20;47.71
78488;BME280;67885;49.758;9.582;2023-04-15T12:43:35;98468.19;;;15.11;48.16
78488;BME280;67885;49.758;9.582;2023-04-15T12:46:03;98476.69;;;15.14;47.98
78488;BME280;67885;49.758;9.582;2023-04-15T12:48:31;98480.38;;;15.13;48.16
78488;BME280;67885;49.758;9.582;2023-04-15T12:50:58;98480.53;;;15.12;48.00
78488;BME280;67885;49.758;9.582;2023-04-15T12:53:25;98486.03;;;15.10;47.70
78488;BME280;67885;49.758;9.582;2023-04-15T12:55:51;98490.53;;;15.01;49.21
78488;BME280;67885;49.758;9.582;2023-04-15T12:58:18;98488.22;;;14.98;49.11
78488;BME280;67885;49.758;9.582;2023-04-15T13:00:45;98493.56;;;14.98;49.61
78488;BME280;67885;49.758;9.582;2023-04-15T13:03:13;98496.41;;;14.97;50.40
78488;BME280;67885;49.758;9.582;2023-04-15T13:05:40;98494.72;;;14.96;49.97
78488;BME280;67885;49.758;9.582;2023-04-15T13:08:08;98500.22;;;14.94;50.35